sensor_id;sensor_type;location;lat;lon;timestamp;P1;durP1;ratioP1;P2;durP2;ratioP2
68657;SDS011;55639;53.480;-2.228;2022-08-26T00:01:23;3.08;;;1.30;;
68657;SDS011;55639;53.480;-2.228;2022-08-26T00:03:49;1.83;;;1.20;;
68657;SDS011;55639;53.480;-2.228;2022-08-26T00:06:15;2.05;;;1.13;;
68657;SDS011;55639;53.480;-2.228;2022-08-26T00:08:41;2.35;;;1.33;;
68657;SDS011;55639;53.480;-2.228;2022-08-26T00:11:07;1.48;;;1.20;;
68657;SDS011;55639;53.480;-2.228;2022-08-26T00:13:34;1.65;;;1.17;;
68657;SDS011;55639;53.480;-2.228;2022-08-26T00:16:00;2.10;;;1.13;;
68657;SDS011;55639;53.480;-2.228;2022-08-26T00:18:27;1.10;;;1.00;;
68657;SDS011;55639;53.480;-2.228;2022-08-26T00:20:53;2.28;;;1.35;;
68657;SDS011;55639;53.480;-2.228;2022-08-26T00:23:19;2.15;;;1.08;;
68657;SDS011;55639;53.480;-2.228;2022-08-26T00:25:45;1.50;;;1.23;;
68657;SDS011;55639;53.480;-2.228;2022-08-26T00:28:11;1.48;;;1.20;;
68657;SDS011;55639;53.480;-2.228;2022-08-26T00:30:37;1.73;;;1.30;;
68657;SDS011;55639;53.480;-2.228;2022-08-26T00:33:03;2.22;;;1.10;;
68657;SDS011;55639;53.480;-2.228;2022-08-26T00:35:30;2.10;;;1.23;;
68657;SDS011;55639;53.480;-2.228;2022-08-26T00:37:56;1.60;;;1.20;;
68657;SDS011;55639;53.480;-2.228;2022-08-26T00:40:26;1.38;;;1.10;;
68657;SDS011;55639;53.480;-2.228;2022-08-26T00:42:55;2.17;;;1.15;;
68657;SDS011;55639;53.480;-2.228;2022-08-26T00:45:20;2.13;;;1.30;;
68657;SDS011;55639;53.480;-2.228;2022-08-26T00:47:56;2.53;;;1.20;;
68657;SDS011;55639;53.480;-2.228;2022-08-26T00:50:31;2.05;;;1.27;;
68657;SDS011;55639;53.480;-2.228;2022-08-26T00:53:00;2.53;;;1.30;;
68657;SDS011;55639;53.480;-2.228;2022-08-26T00:55:30;1.95;;;1.50;;
68657;SDS011;55639;53.480;-2.228;2022-08-26T00:58:03;2.78;;;1.42;;
68657;SDS011;55639;53.480;-2.228;2022-08-26T01:00:30;1.83;;;1.23;;
68657;SDS011;55639;53.480;-2.228;2022-08-26T01:02:58;1.35;;;1.00;;
68657;SDS011;55639;53.480;-2.228;2022-08-26T01:05:25;1.85;;;1.25;;
68657;SDS011;55639;53.480;-2.228;2022-08-26T01:07:51;1.95;;;1.45;;
68657;SDS011;55639;53.480;-2.228;2022-08-26T01:10:18;1.73;;;1.45;;
68657;SDS011;55639;53.480;-2.228;2022-08-26T01:12:54;2.17;;;1.10;;
68657;SDS011;55639;53.480;-2.228;2022-08-26T01:15:24;1.88;;;1.35;;
68657;SDS011;55639;53.480;-2.228;2022-08-26T01:17:52;1.85;;;1.30;;
68657;SDS011;55639;53.480;-2.228;2022-08-26T01:23:01;2.30;;;1.30;;
68657;SDS011;55639;53.480;-2.228;2022-08-26T01:25:30;2.08;;;1.30;;
68657;SDS011;55639;53.480;-2.228;2022-08-26T01:27:59;1.48;;;1.25;;
68657;SDS011;55639;53.480;-2.228;2022-08-26T01:30:29;1.95;;;1.25;;
68657;SDS011;55639;53.480;-2.228;2022-08-26T01:32:56;1.65;;;1.25;;
68657;SDS011;55639;53.480;-2.228;2022-08-26T01:35:25;2.08;;;1.30;;
68657;SDS011;55639;53.480;-2.228;2022-08-26T01:37:51;1.70;;;1.30;;
68657;SDS011;55639;53.480;-2.228;2022-08-26T01:40:20;2.13;;;1.30;;
68657;SDS011;55639;53.480;-2.228;2022-08-26T01:42:52;2.20;;;1.40;;
68657;SDS011;55639;53.480;-2.228;2022-08-26T01:45:20;1.67;;;1.15;;
68657;SDS011;55639;53.480;-2.228;2022-08-26T01:47:49;2.10;;;1.30;;
68657;SDS011;55639;53.480;-2.228;2022-08-26T01:50:20;2.40;;;1.35;;
68657;SDS011;55639;53.480;-2.228;2022-08-26T01:52:49;1.92;;;1.35;;
68657;SDS011;55639;53.480;-2.228;2022-08-26T01:55:16;2.55;;;1.58;;
68657;SDS011;55639;53.480;-2.228;2022-08-26T01:57:44;2.25;;;1.38;;
68657;SDS011;55639;53.480;-2.228;2022-08-26T02:00:12;1.73;;;1.20;;
68657;SDS011;55639;53.480;-2.228;2022-08-26T02:02:39;2.17;;;1.35;;
68657;SDS011;55639;53.480;-2.228;2022-08-26T02:05:06;1.73;;;1.40;;
68657;SDS011;55639;53.480;-2.228;2022-08-26T02:07:36;1.50;;;1.20;;
68657;SDS011;55639;53.480;-2.228;2022-08-26T02:10:03;1.70;;;1.25;;
68657;SDS011;55639;53.480;-2.228;2022-08-26T02:12:30;2.20;;;1.40;;
68657;SDS011;55639;53.480;-2.228;2022-08-26T02:14:57;2.05;;;1.30;;
68657;SDS011;55639;53.480;-2.228;2022-08-26T02:17:28;1.60;;;1.17;;
68657;SDS011;55639;53.480;-2.228;2022-08-26T02:19:57;1.65;;;1.20;;
68657;SDS011;55639;53.480;-2.228;2022-08-26T02:22:23;2.03;;;1.33;;
68657;SDS011;55639;53.480;-2.228;2022-08-26T02:27:21;2.05;;;1.17;;
68657;SDS011;55639;53.480;-2.228;2022-08-26T02:30:00;2.13;;;1.33;;
68657;SDS011;55639;53.480;-2.228;2022-08-26T02:32:30;1.23;;;1.02;;
68657;SDS011;55639;53.480;-2.228;2022-08-26T02:34:55;1.55;;;1.15;;
68657;SDS011;55639;53.480;-2.228;2022-08-26T02:37:21;2.90;;;1.42;;
68657;SDS011;55639;53.480;-2.228;2022-08-26T02:39:46;2.25;;;1.60;;
68657;SDS011;55639;53.480;-2.228;2022-08-26T02:42:12;2.00;;;1.25;;
68657;SDS011;55639;53.480;-2.228;2022-08-26T02:44:38;2.13;;;1.20;;
68657;SDS011;55639;53.480;-2.228;2022-08-26T02:47:05;1.50;;;1.10;;
68657;SDS011;55639;53.480;-2.228;2022-08-26T02:49:31;2.13;;;1.40;;
68657;SDS011;55639;53.480;-2.228;2022-08-26T02:51:57;1.80;;;1.40;;
68657;SDS011;55639;53.480;-2.228;2022-08-26T02:54:25;1.55;;;1.10;;
68657;SDS011;55639;53.480;-2.228;2022-08-26T02:56:50;2.08;;;1.40;;
68657;SDS011;55639;53.480;-2.228;2022-08-26T02:59:16;1.55;;;1.00;;
68657;SDS011;55639;53.480;-2.228;2022-08-26T03:01:42;1.30;;;1.20;;
68657;SDS011;55639;53.480;-2.228;2022-08-26T03:04:10;1.52;;;1.20;;
68657;SDS011;55639;53.480;-2.228;2022-08-26T03:06:36;1.85;;;1.00;;
68657;SDS011;55639;53.480;-2.228;2022-08-26T03:09:02;1.55;;;1.33;;
68657;SDS011;55639;53.480;-2.228;2022-08-26T03:11:29;1.90;;;1.10;;
68657;SDS011;55639;53.480;-2.228;2022-08-26T03:13:55;1.58;;;1.13;;
68657;SDS011;55639;53.480;-2.228;2022-08-26T03:16:21;1.98;;;1.20;;
68657;SDS011;55639;53.480;-2.228;2022-08-26T03:18:46;1.65;;;1.20;;
68657;SDS011;55639;53.480;-2.228;2022-08-26T03:21:13;1.67;;;1.10;;
68657;SDS011;55639;53.480;-2.228;2022-08-26T03:23:43;1.45;;;1.00;;
68657;SDS011;55639;53.480;-2.228;2022-08-26T03:26:10;1.50;;;1.27;;
68657;SDS011;55639;53.480;-2.228;2022-08-26T03:28:37;1.40;;;1.02;;
68657;SDS011;55639;53.480;-2.228;2022-08-26T03:31:26;1.33;;;1.17;;
68657;SDS011;55639;53.480;-2.228;2022-08-26T03:33:53;1.90;;;1.20;;
68657;SDS011;55639;53.480;-2.228;2022-08-26T03:36:19;1.40;;;1.10;;
68657;SDS011;55639;53.480;-2.228;2022-08-26T03:38:45;1.52;;;1.20;;
68657;SDS011;55639;53.480;-2.228;2022-08-26T03:41:10;1.35;;;1.10;;
68657;SDS011;55639;53.480;-2.228;2022-08-26T03:43:36;1.50;;;1.15;;
68657;SDS011;55639;53.480;-2.228;2022-08-26T03:46:03;1.30;;;1.00;;
68657;SDS011;55639;53.480;-2.228;2022-08-26T03:48:30;2.47;;;1.10;;
68657;SDS011;55639;53.480;-2.228;2022-08-26T03:50:56;1.60;;;0.98;;
68657;SDS011;55639;53.480;-2.228;2022-08-26T03:53:21;1.65;;;1.08;;
68657;SDS011;55639;53.480;-2.228;2022-08-26T03:55:48;1.45;;;1.00;;
68657;SDS011;55639;53.480;-2.228;2022-08-26T03:58:13;1.70;;;1.10;;
68657;SDS011;55639;53.480;-2.228;2022-08-26T04:00:39;1.90;;;1.02;;
68657;SDS011;55639;53.480;-2.228;2022-08-26T04:03:05;1.15;;;0.85;;
68657;SDS011;55639;53.480;-2.228;2022-08-26T04:05:31;1.33;;;1.00;;
68657;SDS011;55639;53.480;-2.228;2022-08-26T04:07:57;1.70;;;1.20;;
68657;SDS011;55639;53.480;-2.228;2022-08-26T04:10:22;2.38;;;1.27;;
68657;SDS011;55639;53.480;-2.228;2022-08-26T04:12:49;1.33;;;1.00;;
68657;SDS011;55639;53.480;-2.228;2022-08-26T04:15:18;2.17;;;1.00;;
68657;SDS011;55639;53.480;-2.228;2022-08-26T04:17:45;1.08;;;0.98;;
68657;SDS011;55639;53.480;-2.228;2022-08-26T04:20:11;1.20;;;1.10;;
68657;SDS011;55639;53.480;-2.228;2022-08-26T04:22:38;1.45;;;0.90;;
68657;SDS011;55639;53.480;-2.228;2022-08-26T04:25:05;1.88;;;1.20;;
68657;SDS011;55639;53.480;-2.228;2022-08-26T04:27:31;1.70;;;1.10;;
68657;SDS011;55639;53.480;-2.228;2022-08-26T04:29:57;1.13;;;0.90;;
68657;SDS011;55639;53.480;-2.228;2022-08-26T04:32:23;1.52;;;1.05;;
68657;SDS011;55639;53.480;-2.228;2022-08-26T04:34:48;1.40;;;1.00;;
68657;SDS011;55639;53.480;-2.228;2022-08-26T04:37:14;2.15;;;1.13;;
68657;SDS011;55639;53.480;-2.228;2022-08-26T04:39:40;1.10;;;0.90;;
68657;SDS011;55639;53.480;-2.228;2022-08-26T04:42:06;1.73;;;1.10;;
68657;SDS011;55639;53.480;-2.228;2022-08-26T04:44:33;1.88;;;1.00;;
68657;SDS011;55639;53.480;-2.228;2022-08-26T04:47:00;1.70;;;1.20;;
68657;SDS011;55639;53.480;-2.228;2022-08-26T04:49:25;1.17;;;0.80;;
68657;SDS011;55639;53.480;-2.228;2022-08-26T04:51:51;1.58;;;0.90;;
68657;SDS011;55639;53.480;-2.228;2022-08-26T04:54:17;1.30;;;1.02;;
68657;SDS011;55639;53.480;-2.228;2022-08-26T04:56:44;1.15;;;0.90;;
68657;SDS011;55639;53.480;-2.228;2022-08-26T04:59:12;1.30;;;0.95;;
68657;SDS011;55639;53.480;-2.228;2022-08-26T05:01:47;1.67;;;1.17;;
68657;SDS011;55639;53.480;-2.228;2022-08-26T05:04:15;1.27;;;0.90;;
68657;SDS011;55639;53.480;-2.228;2022-08-26T05:06:42;1.10;;;1.00;;
68657;SDS011;55639;53.480;-2.228;2022-08-26T05:09:08;1.02;;;0.90;;
68657;SDS011;55639;53.480;-2.228;2022-08-26T05:11:36;1.30;;;1.05;;
68657;SDS011;55639;53.480;-2.228;2022-08-26T05:14:02;1.38;;;0.95;;
68657;SDS011;55639;53.480;-2.228;2022-08-26T05:16:29;1.98;;;1.20;;
68657;SDS011;55639;53.480;-2.228;2022-08-26T05:18:56;1.25;;;0.85;;
68657;SDS011;55639;53.480;-2.228;2022-08-26T05:21:23;1.67;;;0.95;;
68657;SDS011;55639;53.480;-2.228;2022-08-26T05:23:50;1.05;;;0.85;;
68657;SDS011;55639;53.480;-2.228;2022-08-26T05:26:19;1.23;;;0.90;;
68657;SDS011;55639;53.480;-2.228;2022-08-26T05:28:45;1.35;;;0.80;;
68657;SDS011;55639;53.480;-2.228;2022-08-26T05:31:16;1.30;;;0.85;;
68657;SDS011;55639;53.480;-2.228;2022-08-26T05:33:44;1.73;;;0.90;;
68657;SDS011;55639;53.480;-2.228;2022-08-26T05:36:12;1.55;;;1.00;;
68657;SDS011;55639;53.480;-2.228;2022-08-26T05:38:40;1.30;;;0.93;;
68657;SDS011;55639;53.480;-2.228;2022-08-26T05:41:13;1.30;;;1.10;;
68657;SDS011;55639;53.480;-2.228;2022-08-26T05:43:41;1.92;;;1.00;;
68657;SDS011;55639;53.480;-2.228;2022-08-26T05:46:07;1.67;;;1.00;;
68657;SDS011;55639;53.480;-2.228;2022-08-26T05:48:32;1.95;;;1.10;;
68657;SDS011;55639;53.480;-2.228;2022-08-26T05:51:00;1.45;;;0.93;;
68657;SDS011;55639;53.480;-2.228;2022-08-26T05:53:32;1.88;;;1.10;;
68657;SDS011;55639;53.480;-2.228;2022-08-26T05:55:58;1.50;;;1.00;;
68657;SDS011;55639;53.480;-2.228;2022-08-26T05:58:24;1.23;;;0.80;;
68657;SDS011;55639;53.480;-2.228;2022-08-26T06:01:01;2.22;;;1.17;;
68657;SDS011;55639;53.480;-2.228;2022-08-26T06:03:30;1.42;;;0.98;;
68657;SDS011;55639;53.480;-2.228;2022-08-26T06:05:58;2.35;;;1.15;;
68657;SDS011;55639;53.480;-2.228;2022-08-26T06:08:27;1.40;;;1.00;;
68657;SDS011;55639;53.480;-2.228;2022-08-26T06:10:54;1.63;;;1.00;;
68657;SDS011;55639;53.480;-2.228;2022-08-26T06:13:24;1.20;;;0.73;;
68657;SDS011;55639;53.480;-2.228;2022-08-26T06:15:52;1.50;;;0.90;;
68657;SDS011;55639;53.480;-2.228;2022-08-26T06:18:22;1.70;;;0.77;;
68657;SDS011;55639;53.480;-2.228;2022-08-26T06:20:56;1.58;;;0.90;;
68657;SDS011;55639;53.480;-2.228;2022-08-26T06:23:23;1.30;;;0.80;;
68657;SDS011;55639;53.480;-2.228;2022-08-26T06:26:08;1.05;;;0.70;;
68657;SDS011;55639;53.480;-2.228;2022-08-26T06:28:34;3.78;;;1.00;;
68657;SDS011;55639;53.480;-2.228;2022-08-26T06:31:01;1.02;;;0.80;;
68657;SDS011;55639;53.480;-2.228;2022-08-26T06:33:27;1.45;;;0.98;;
68657;SDS011;55639;53.480;-2.228;2022-08-26T06:35:53;1.40;;;0.93;;
68657;SDS011;55639;53.480;-2.228;2022-08-26T06:38:19;1.77;;;1.02;;
68657;SDS011;55639;53.480;-2.228;2022-08-26T06:40:46;1.70;;;0.90;;
68657;SDS011;55639;53.480;-2.228;2022-08-26T06:43:17;1.20;;;0.77;;
68657;SDS011;55639;53.480;-2.228;2022-08-26T06:45:45;1.85;;;1.02;;
68657;SDS011;55639;53.480;-2.228;2022-08-26T06:48:12;2.33;;;1.00;;
68657;SDS011;55639;53.480;-2.228;2022-08-26T06:50:39;2.45;;;1.08;;
68657;SDS011;55639;53.480;-2.228;2022-08-26T06:53:05;1.63;;;0.90;;
68657;SDS011;55639;53.480;-2.228;2022-08-26T06:55:32;1.77;;;0.77;;
68657;SDS011;55639;53.480;-2.228;2022-08-26T06:58:02;1.10;;;0.85;;
68657;SDS011;55639;53.480;-2.228;2022-08-26T07:00:28;1.02;;;0.80;;
68657;SDS011;55639;53.480;-2.228;2022-08-26T07:02:56;1.23;;;0.90;;
68657;SDS011;55639;53.480;-2.228;2022-08-26T07:05:21;1.20;;;0.90;;
68657;SDS011;55639;53.480;-2.228;2022-08-26T07:07:49;1.30;;;0.70;;
68657;SDS011;55639;53.480;-2.228;2022-08-26T07:10:16;1.60;;;0.90;;
68657;SDS011;55639;53.480;-2.228;2022-08-26T07:12:42;1.25;;;0.90;;
68657;SDS011;55639;53.480;-2.228;2022-08-26T07:15:08;0.98;;;0.80;;
68657;SDS011;55639;53.480;-2.228;2022-08-26T07:17:34;2.22;;;0.85;;
68657;SDS011;55639;53.480;-2.228;2022-08-26T07:20:00;1.13;;;0.93;;
68657;SDS011;55639;53.480;-2.228;2022-08-26T07:22:27;1.23;;;0.90;;
68657;SDS011;55639;53.480;-2.228;2022-08-26T07:24:53;1.35;;;0.90;;
68657;SDS011;55639;53.480;-2.228;2022-08-26T07:27:18;1.70;;;1.05;;
68657;SDS011;55639;53.480;-2.228;2022-08-26T07:29:44;1.35;;;0.88;;
68657;SDS011;55639;53.480;-2.228;2022-08-26T07:32:11;1.58;;;0.88;;
68657;SDS011;55639;53.480;-2.228;2022-08-26T07:34:38;1.90;;;0.98;;
68657;SDS011;55639;53.480;-2.228;2022-08-26T07:37:05;1.10;;;1.00;;
68657;SDS011;55639;53.480;-2.228;2022-08-26T07:39:31;0.82;;;0.80;;
68657;SDS011;55639;53.480;-2.228;2022-08-26T07:41:58;1.13;;;0.75;;
68657;SDS011;55639;53.480;-2.228;2022-08-26T07:44:25;1.17;;;0.93;;
68657;SDS011;55639;53.480;-2.228;2022-08-26T07:46:51;1.27;;;0.77;;
68657;SDS011;55639;53.480;-2.228;2022-08-26T07:49:17;0.88;;;0.73;;
68657;SDS011;55639;53.480;-2.228;2022-08-26T07:51:43;1.17;;;0.93;;
68657;SDS011;55639;53.480;-2.228;2022-08-26T07:54:09;1.45;;;0.80;;
68657;SDS011;55639;53.480;-2.228;2022-08-26T07:56:35;1.20;;;0.82;;
68657;SDS011;55639;53.480;-2.228;2022-08-26T07:59:00;1.30;;;0.75;;
68657;SDS011;55639;53.480;-2.228;2022-08-26T08:01:26;1.17;;;0.90;;
68657;SDS011;55639;53.480;-2.228;2022-08-26T08:03:55;1.50;;;0.80;;
68657;SDS011;55639;53.480;-2.228;2022-08-26T08:06:22;1.30;;;0.85;;
68657;SDS011;55639;53.480;-2.228;2022-08-26T08:08:50;1.65;;;0.90;;
68657;SDS011;55639;53.480;-2.228;2022-08-26T08:11:16;1.20;;;0.70;;
68657;SDS011;55639;53.480;-2.228;2022-08-26T08:13:45;1.40;;;0.85;;
68657;SDS011;55639;53.480;-2.228;2022-08-26T08:16:11;0.73;;;0.70;;
68657;SDS011;55639;53.480;-2.228;2022-08-26T08:18:37;0.90;;;0.80;;
68657;SDS011;55639;53.480;-2.228;2022-08-26T08:21:04;0.90;;;0.68;;
68657;SDS011;55639;53.480;-2.228;2022-08-26T08:23:29;1.00;;;0.80;;
68657;SDS011;55639;53.480;-2.228;2022-08-26T08:25:59;0.90;;;0.90;;
68657;SDS011;55639;53.480;-2.228;2022-08-26T08:28:28;1.23;;;0.90;;
68657;SDS011;55639;53.480;-2.228;2022-08-26T08:30:54;1.48;;;0.90;;
68657;SDS011;55639;53.480;-2.228;2022-08-26T08:33:20;1.40;;;0.80;;
68657;SDS011;55639;53.480;-2.228;2022-08-26T08:35:46;1.25;;;0.90;;
68657;SDS011;55639;53.480;-2.228;2022-08-26T08:38:12;1.23;;;0.75;;
68657;SDS011;55639;53.480;-2.228;2022-08-26T08:40:38;1.50;;;1.02;;
68657;SDS011;55639;53.480;-2.228;2022-08-26T08:43:08;2.17;;;0.80;;
68657;SDS011;55639;53.480;-2.228;2022-08-26T08:45:44;1.00;;;0.73;;
68657;SDS011;55639;53.480;-2.228;2022-08-26T08:50:50;0.88;;;0.70;;
68657;SDS011;55639;53.480;-2.228;2022-08-26T08:53:27;0.70;;;0.70;;
68657;SDS011;55639;53.480;-2.228;2022-08-26T08:56:01;1.25;;;0.82;;
68657;SDS011;55639;53.480;-2.228;2022-08-26T09:01:31;1.52;;;0.65;;
68657;SDS011;55639;53.480;-2.228;2022-08-26T09:07:09;0.85;;;0.68;;
68657;SDS011;55639;53.480;-2.228;2022-08-26T09:09:41;1.33;;;0.90;;
68657;SDS011;55639;53.480;-2.228;2022-08-26T09:12:19;1.65;;;0.80;;
68657;SDS011;55639;53.480;-2.228;2022-08-26T09:14:48;1.17;;;0.75;;
68657;SDS011;55639;53.480;-2.228;2022-08-26T09:19:48;1.33;;;0.80;;
68657;SDS011;55639;53.480;-2.228;2022-08-26T09:22:30;1.15;;;0.70;;
68657;SDS011;55639;53.480;-2.228;2022-08-26T09:24:58;1.20;;;0.70;;
68657;SDS011;55639;53.480;-2.228;2022-08-26T09:30:11;0.82;;;0.63;;
68657;SDS011;55639;53.480;-2.228;2022-08-26T09:33:05;1.58;;;0.80;;
68657;SDS011;55639;53.480;-2.228;2022-08-26T09:35:34;0.95;;;0.70;;
68657;SDS011;55639;53.480;-2.228;2022-08-26T09:38:01;1.00;;;0.60;;
68657;SDS011;55639;53.480;-2.228;2022-08-26T09:41:00;0.85;;;0.68;;
68657;SDS011;55639;53.480;-2.228;2022-08-26T09:43:28;0.77;;;0.68;;
68657;SDS011;55639;53.480;-2.228;2022-08-26T09:46:08;1.05;;;0.70;;
68657;SDS011;55639;53.480;-2.228;2022-08-26T09:48:38;1.27;;;0.80;;
68657;SDS011;55639;53.480;-2.228;2022-08-26T09:51:05;0.93;;;0.60;;
68657;SDS011;55639;53.480;-2.228;2022-08-26T09:53:54;1.23;;;0.77;;
68657;SDS011;55639;53.480;-2.228;2022-08-26T09:56:28;1.70;;;0.90;;
68657;SDS011;55639;53.480;-2.228;2022-08-26T09:58:57;0.93;;;0.70;;
68657;SDS011;55639;53.480;-2.228;2022-08-26T10:06:37;1.58;;;0.95;;
68657;SDS011;55639;53.480;-2.228;2022-08-26T10:09:24;2.03;;;0.70;;
68657;SDS011;55639;53.480;-2.228;2022-08-26T10:11:51;2.72;;;0.82;;
68657;SDS011;55639;53.480;-2.228;2022-08-26T10:16:54;2.20;;;0.80;;
68657;SDS011;55639;53.480;-2.228;2022-08-26T10:24:46;3.53;;;0.80;;
68657;SDS011;55639;53.480;-2.228;2022-08-26T10:30:11;0.98;;;0.68;;
68657;SDS011;55639;53.480;-2.228;2022-08-26T10:35:16;2.95;;;1.00;;
68657;SDS011;55639;53.480;-2.228;2022-08-26T10:37:53;1.20;;;0.80;;
68657;SDS011;55639;53.480;-2.228;2022-08-26T10:43:05;3.45;;;0.93;;
68657;SDS011;55639;53.480;-2.228;2022-08-26T10:45:36;1.70;;;0.93;;
68657;SDS011;55639;53.480;-2.228;2022-08-26T10:48:07;2.97;;;0.95;;
68657;SDS011;55639;53.480;-2.228;2022-08-26T10:50:37;2.85;;;1.15;;
68657;SDS011;55639;53.480;-2.228;2022-08-26T11:01:38;2.88;;;0.93;;
68657;SDS011;55639;53.480;-2.228;2022-08-26T11:07:32;1.40;;;0.70;;
68657;SDS011;55639;53.480;-2.228;2022-08-26T11:10:04;2.05;;;0.73;;
68657;SDS011;55639;53.480;-2.228;2022-08-26T11:12:47;2.53;;;0.77;;
68657;SDS011;55639;53.480;-2.228;2022-08-26T11:28:31;1.70;;;0.80;;
68657;SDS011;55639;53.480;-2.228;2022-08-26T11:30:59;1.48;;;0.70;;
68657;SDS011;55639;53.480;-2.228;2022-08-26T11:33:59;4.15;;;0.90;;
68657;SDS011;55639;53.480;-2.228;2022-08-26T11:36:32;2.45;;;0.80;;
68657;SDS011;55639;53.480;-2.228;2022-08-26T11:39:00;1.67;;;0.80;;
68657;SDS011;55639;53.480;-2.228;2022-08-26T11:41:27;1.45;;;0.70;;
68657;SDS011;55639;53.480;-2.228;2022-08-26T11:43:55;1.65;;;0.73;;
68657;SDS011;55639;53.480;-2.228;2022-08-26T11:46:27;1.42;;;0.60;;
68657;SDS011;55639;53.480;-2.228;2022-08-26T11:49:00;1.90;;;0.90;;
68657;SDS011;55639;53.480;-2.228;2022-08-26T11:51:29;1.52;;;0.60;;
68657;SDS011;55639;53.480;-2.228;2022-08-26T11:54:15;1.15;;;0.60;;
68657;SDS011;55639;53.480;-2.228;2022-08-26T11:56:43;1.35;;;0.60;;
68657;SDS011;55639;53.480;-2.228;2022-08-26T11:59:12;1.75;;;0.75;;
68657;SDS011;55639;53.480;-2.228;2022-08-26T12:01:43;1.70;;;0.75;;
68657;SDS011;55639;53.480;-2.228;2022-08-26T12:04:16;1.83;;;0.90;;
68657;SDS011;55639;53.480;-2.228;2022-08-26T12:06:50;1.08;;;0.55;;
68657;SDS011;55639;53.480;-2.228;2022-08-26T12:09:24;1.15;;;0.60;;
68657;SDS011;55639;53.480;-2.228;2022-08-26T12:11:51;0.85;;;0.57;;
68657;SDS011;55639;53.480;-2.228;2022-08-26T12:14:21;2.33;;;0.60;;
68657;SDS011;55639;53.480;-2.228;2022-08-26T12:16:49;1.63;;;0.60;;
68657;SDS011;55639;53.480;-2.228;2022-08-26T12:19:25;1.80;;;0.80;;
68657;SDS011;55639;53.480;-2.228;2022-08-26T12:22:34;1.30;;;0.55;;
68657;SDS011;55639;53.480;-2.228;2022-08-26T12:24:57;1.85;;;0.65;;
68657;SDS011;55639;53.480;-2.228;2022-08-26T12:27:25;1.65;;;0.68;;
68657;SDS011;55639;53.480;-2.228;2022-08-26T12:30:15;1.73;;;0.70;;
68657;SDS011;55639;53.480;-2.228;2022-08-26T12:33:02;1.90;;;0.80;;
68657;SDS011;55639;53.480;-2.228;2022-08-26T12:35:32;3.20;;;0.80;;
68657;SDS011;55639;53.480;-2.228;2022-08-26T12:38:00;1.33;;;0.57;;
68657;SDS011;55639;53.480;-2.228;2022-08-26T12:40:30;2.45;;;0.70;;
68657;SDS011;55639;53.480;-2.228;2022-08-26T12:42:59;2.00;;;0.68;;
68657;SDS011;55639;53.480;-2.228;2022-08-26T12:45:37;1.65;;;0.75;;
68657;SDS011;55639;53.480;-2.228;2022-08-26T12:48:10;1.98;;;0.63;;
68657;SDS011;55639;53.480;-2.228;2022-08-26T12:50:45;1.45;;;0.80;;
68657;SDS011;55639;53.480;-2.228;2022-08-26T12:53:20;1.90;;;0.70;;
68657;SDS011;55639;53.480;-2.228;2022-08-26T12:55:48;1.27;;;0.50;;
68657;SDS011;55639;53.480;-2.228;2022-08-26T13:00:56;2.15;;;0.80;;
68657;SDS011;55639;53.480;-2.228;2022-08-26T13:03:42;1.63;;;0.70;;
68657;SDS011;55639;53.480;-2.228;2022-08-26T13:08:48;2.97;;;0.80;;
68657;SDS011;55639;53.480;-2.228;2022-08-26T13:11:26;3.85;;;0.95;;
68657;SDS011;55639;53.480;-2.228;2022-08-26T13:13:55;2.33;;;0.82;;
68657;SDS011;55639;53.480;-2.228;2022-08-26T13:16:38;2.38;;;0.68;;
68657;SDS011;55639;53.480;-2.228;2022-08-26T13:19:09;1.35;;;0.60;;
68657;SDS011;55639;53.480;-2.228;2022-08-26T13:21:39;2.28;;;0.70;;
68657;SDS011;55639;53.480;-2.228;2022-08-26T13:24:08;2.28;;;0.80;;
68657;SDS011;55639;53.480;-2.228;2022-08-26T13:26:36;2.88;;;0.70;;
68657;SDS011;55639;53.480;-2.228;2022-08-26T13:29:06;1.90;;;0.60;;
68657;SDS011;55639;53.480;-2.228;2022-08-26T13:31:32;2.92;;;0.95;;
68657;SDS011;55639;53.480;-2.228;2022-08-26T13:34:00;1.45;;;0.80;;
68657;SDS011;55639;53.480;-2.228;2022-08-26T13:36:26;0.98;;;0.60;;
68657;SDS011;55639;53.480;-2.228;2022-08-26T13:38:52;1.67;;;0.60;;
68657;SDS011;55639;53.480;-2.228;2022-08-26T13:41:18;2.15;;;0.70;;
68657;SDS011;55639;53.480;-2.228;2022-08-26T13:43:44;1.45;;;0.75;;
68657;SDS011;55639;53.480;-2.228;2022-08-26T13:46:09;1.17;;;0.70;;
68657;SDS011;55639;53.480;-2.228;2022-08-26T13:48:35;2.03;;;0.70;;
68657;SDS011;55639;53.480;-2.228;2022-08-26T13:51:02;1.45;;;0.70;;
68657;SDS011;55639;53.480;-2.228;2022-08-26T13:53:28;1.75;;;0.65;;
68657;SDS011;55639;53.480;-2.228;2022-08-26T13:55:58;1.75;;;0.60;;
68657;SDS011;55639;53.480;-2.228;2022-08-26T13:58:25;1.13;;;0.50;;
68657;SDS011;55639;53.480;-2.228;2022-08-26T14:00:52;1.90;;;0.68;;
68657;SDS011;55639;53.480;-2.228;2022-08-26T14:03:19;1.92;;;0.50;;
68657;SDS011;55639;53.480;-2.228;2022-08-26T14:05:45;1.58;;;0.50;;
68657;SDS011;55639;53.480;-2.228;2022-08-26T14:08:11;1.80;;;0.70;;
68657;SDS011;55639;53.480;-2.228;2022-08-26T14:10:36;1.52;;;0.50;;
68657;SDS011;55639;53.480;-2.228;2022-08-26T14:13:02;0.95;;;0.60;;
68657;SDS011;55639;53.480;-2.228;2022-08-26T14:15:30;1.23;;;0.40;;
68657;SDS011;55639;53.480;-2.228;2022-08-26T14:17:58;1.40;;;0.50;;
68657;SDS011;55639;53.480;-2.228;2022-08-26T14:20:28;1.45;;;0.60;;
68657;SDS011;55639;53.480;-2.228;2022-08-26T14:22:55;1.63;;;0.65;;
68657;SDS011;55639;53.480;-2.228;2022-08-26T14:25:21;1.65;;;0.63;;
68657;SDS011;55639;53.480;-2.228;2022-08-26T14:27:48;1.10;;;0.50;;
68657;SDS011;55639;53.480;-2.228;2022-08-26T14:30:14;1.52;;;0.50;;
68657;SDS011;55639;53.480;-2.228;2022-08-26T14:32:42;1.20;;;0.45;;
68657;SDS011;55639;53.480;-2.228;2022-08-26T14:35:18;1.40;;;0.60;;
68657;SDS011;55639;53.480;-2.228;2022-08-26T14:37:47;1.33;;;0.70;;
68657;SDS011;55639;53.480;-2.228;2022-08-26T14:40:13;1.88;;;0.60;;
68657;SDS011;55639;53.480;-2.228;2022-08-26T14:42:42;2.10;;;0.60;;
68657;SDS011;55639;53.480;-2.228;2022-08-26T14:45:13;1.35;;;0.70;;
68657;SDS011;55639;53.480;-2.228;2022-08-26T14:47:42;1.65;;;0.60;;
68657;SDS011;55639;53.480;-2.228;2022-08-26T14:50:09;1.30;;;0.50;;
68657;SDS011;55639;53.480;-2.228;2022-08-26T14:52:36;2.13;;;0.80;;
68657;SDS011;55639;53.480;-2.228;2022-08-26T14:55:21;1.25;;;0.50;;
68657;SDS011;55639;53.480;-2.228;2022-08-26T14:57:47;0.60;;;0.40;;
68657;SDS011;55639;53.480;-2.228;2022-08-26T15:00:13;1.30;;;0.55;;
68657;SDS011;55639;53.480;-2.228;2022-08-26T15:02:39;1.67;;;0.70;;
68657;SDS011;55639;53.480;-2.228;2022-08-26T15:05:05;0.80;;;0.52;;
68657;SDS011;55639;53.480;-2.228;2022-08-26T15:07:32;2.25;;;0.88;;
68657;SDS011;55639;53.480;-2.228;2022-08-26T15:09:58;1.95;;;0.60;;
68657;SDS011;55639;53.480;-2.228;2022-08-26T15:12:24;1.30;;;0.70;;
68657;SDS011;55639;53.480;-2.228;2022-08-26T15:14:50;3.28;;;0.70;;
68657;SDS011;55639;53.480;-2.228;2022-08-26T15:17:16;1.60;;;0.73;;
68657;SDS011;55639;53.480;-2.228;2022-08-26T15:19:41;2.78;;;0.80;;
68657;SDS011;55639;53.480;-2.228;2022-08-26T15:22:07;2.53;;;0.82;;
68657;SDS011;55639;53.480;-2.228;2022-08-26T15:24:33;1.88;;;0.80;;
68657;SDS011;55639;53.480;-2.228;2022-08-26T15:26:59;1.42;;;0.60;;
68657;SDS011;55639;53.480;-2.228;2022-08-26T15:29:24;1.65;;;0.60;;
68657;SDS011;55639;53.480;-2.228;2022-08-26T15:31:50;2.60;;;0.63;;
68657;SDS011;55639;53.480;-2.228;2022-08-26T15:34:17;1.38;;;0.70;;
68657;SDS011;55639;53.480;-2.228;2022-08-26T15:36:43;2.10;;;0.75;;
68657;SDS011;55639;53.480;-2.228;2022-08-26T15:39:10;2.28;;;0.90;;
68657;SDS011;55639;53.480;-2.228;2022-08-26T15:41:37;2.33;;;0.60;;
68657;SDS011;55639;53.480;-2.228;2022-08-26T15:44:03;2.90;;;0.63;;
68657;SDS011;55639;53.480;-2.228;2022-08-26T15:46:30;1.67;;;0.80;;
68657;SDS011;55639;53.480;-2.228;2022-08-26T15:48:56;2.53;;;0.90;;
68657;SDS011;55639;53.480;-2.228;2022-08-26T15:51:29;0.90;;;0.60;;
68657;SDS011;55639;53.480;-2.228;2022-08-26T15:53:56;2.38;;;0.70;;